createdAt,value
2022-08-01T00:01:14.712Z,23.50
2022-08-01T00:03:17.318Z,23.48
2022-08-01T00:05:20.301Z,23.50
2022-08-01T00:07:22.920Z,22.78
2022-08-01T00:09:25.499Z,22.63
2022-08-01T00:11:28.388Z,23.06
2022-08-01T00:13:30.965Z,23.16
2022-08-01T00:15:34.821Z,23.43
2022-08-01T00:17:37.833Z,23.20
2022-08-01T00:19:40.410Z,23.41
2022-08-01T00:22:02.743Z,23.29
2022-08-01T00:24:05.596Z,23.29
2022-08-01T00:26:08.191Z,23.45
2022-08-01T00:28:10.931Z,23.12
2022-08-01T00:30:14.967Z,23.48
2022-08-01T00:32:18.188Z,23.49
2022-08-01T00:34:20.945Z,23.41
2022-08-01T00:36:23.668Z,23.20
2022-08-01T00:38:26.348Z,22.71
2022-08-01T00:40:29.389Z,23.37
2022-08-01T00:42:31.916Z,23.13
2022-08-01T00:44:35.619Z,23.26
2022-08-01T00:46:38.342Z,23.25
2022-08-01T00:48:42.607Z,23.35
2022-08-01T00:50:45.289Z,22.87
2022-08-01T00:52:51.335Z,23.27
2022-08-01T00:54:54.177Z,22.72
2022-08-01T00:56:57.426Z,22.66
2022-08-01T00:59:00.057Z,23.28
2022-08-01T01:01:03.795Z,23.20
2022-08-01T01:03:07.139Z,23.28
2022-08-01T01:05:09.974Z,23.06
2022-08-01T01:07:30.439Z,23.22
2022-08-01T01:10:01.426Z,22.97
2022-08-01T01:12:21.590Z,23.16
2022-08-01T01:14:47.845Z,22.88
2022-08-01T01:16:51.734Z,22.90
2022-08-01T01:19:03.660Z,22.52
2022-08-01T01:21:19.175Z,23.08
2022-08-01T01:23:51.858Z,23.08
2022-08-01T01:26:24.773Z,23.08
2022-08-01T01:29:05.737Z,23.07
2022-08-01T01:31:11.887Z,22.91
2022-08-01T01:33:16.931Z,23.02
2022-08-01T01:35:25.851Z,22.76
2022-08-01T01:37:29.507Z,22.74
2022-08-01T01:39:33.806Z,22.74
2022-08-01T01:41:39.263Z,22.79
2022-08-01T01:43:42.539Z,22.75
2022-08-01T01:45:48.446Z,22.09
2022-08-01T01:47:52.067Z,22.68
2022-08-01T01:49:56.676Z,22.30
2022-08-01T01:52:03.183Z,22.59
2022-08-01T01:54:08.125Z,21.75
2022-08-01T01:56:12.445Z,22.09
2022-08-01T01:58:20.806Z,22.21
2022-08-01T02:00:25.005Z,22.31
2022-08-01T02:02:28.664Z,21.94
2022-08-01T02:04:34.307Z,22.12
2022-08-01T02:06:38.705Z,21.79
2022-08-01T02:08:42.962Z,21.83
2022-08-01T02:11:07.683Z,22.06
2022-08-01T02:13:12.058Z,21.75
2022-08-01T02:15:16.938Z,21.75
2022-08-01T02:17:22.298Z,21.92
2022-08-01T02:19:24.936Z,21.10
2022-08-01T02:21:46.928Z,21.74
2022-08-01T02:23:51.180Z,21.63
2022-08-01T02:26:10.431Z,21.22
2022-08-01T02:28:20.073Z,21.49
2022-08-01T02:30:26.018Z,21.42
2022-08-01T02:32:53.094Z,21.44
2022-08-01T02:34:58.302Z,21.23
2022-08-01T02:37:02.722Z,21.59
2022-08-01T02:39:10.887Z,21.51
2022-08-01T02:41:20.530Z,21.32
2022-08-01T02:43:27.870Z,21.25
2022-08-01T02:45:31.370Z,21.40
2022-08-01T02:47:34.840Z,21.47
2022-08-01T02:49:53.224Z,21.42
2022-08-01T02:51:57.847Z,21.50
2022-08-01T02:54:03.066Z,21.42
2022-08-01T02:56:07.408Z,21.29
2022-08-01T02:58:11.881Z,20.63
2022-08-01T03:00:17.866Z,21.50
2022-08-01T03:02:23.976Z,21.38
2022-08-01T03:04:27.815Z,21.56
2022-08-01T03:06:31.273Z,21.36
2022-08-01T03:08:36.102Z,21.42
2022-08-01T03:10:41.952Z,21.73
2022-08-01T03:12:48.263Z,21.58
2022-08-01T03:14:53.076Z,21.72
2022-08-01T03:16:57.048Z,21.66
2022-08-01T03:19:02.303Z,21.22
2022-08-01T03:21:06.285Z,21.83
2022-08-01T03:23:11.258Z,21.89
2022-08-01T03:25:16.474Z,21.94
2022-08-01T03:27:23.898Z,22.06
2022-08-01T03:29:29.118Z,21.83
2022-08-01T03:31:32.042Z,21.92
2022-08-01T03:33:35.106Z,22.06
2022-08-01T03:35:47.076Z,21.86
2022-08-01T03:38:15.185Z,21.35
2022-08-01T03:40:25.761Z,22.19
2022-08-01T03:42:35.060Z,21.73
2022-08-01T03:44:40.285Z,21.97
2022-08-01T03:46:55.381Z,22.24
2022-08-01T03:49:03.500Z,22.09
2022-08-01T03:51:08.577Z,22.09
2022-08-01T03:53:12.314Z,22.18
2022-08-01T03:55:18.010Z,22.23
2022-08-01T03:57:36.981Z,22.31
2022-08-01T03:59:41.053Z,22.53
2022-08-01T04:01:45.467Z,22.43
2022-08-01T04:03:48.510Z,22.32
2022-08-01T04:05:51.607Z,22.32
2022-08-01T04:07:57.027Z,21.96
2022-08-01T04:10:00.054Z,21.98
2022-08-01T04:12:12.136Z,22.52
2022-08-01T04:14:15.791Z,22.39
2022-08-01T04:16:18.381Z,22.59
2022-08-01T04:18:20.943Z,22.59
2022-08-01T04:20:23.801Z,22.81
2022-08-01T04:22:28.232Z,22.55
2022-08-01T04:24:33.768Z,22.26
2022-08-01T04:26:38.409Z,22.27
2022-08-01T04:28:43.838Z,22.86
2022-08-01T04:30:50.356Z,22.87
2022-08-01T04:32:56.534Z,22.44
2022-08-01T04:35:01.483Z,23.02
2022-08-01T04:37:06.069Z,22.33
2022-08-01T04:39:10.149Z,22.99
2022-08-01T04:41:14.900Z,22.96
2022-08-01T04:43:17.852Z,22.33
2022-08-01T04:45:20.783Z,23.16
2022-08-01T04:47:24.343Z,23.19
2022-08-01T04:49:27.077Z,23.04
2022-08-01T04:51:29.979Z,22.58
2022-08-01T04:53:33.494Z,22.97
2022-08-01T04:55:36.666Z,23.18
2022-08-01T04:57:42.521Z,23.36
2022-08-01T04:59:45.602Z,22.84
2022-08-01T05:01:51.936Z,22.87
2022-08-01T05:03:54.687Z,23.37
2022-08-01T05:05:57.259Z,23.15
2022-08-01T05:08:00.381Z,23.86
2022-08-01T05:10:06.819Z,23.96
2022-08-01T05:12:11.978Z,23.97
2022-08-01T05:14:14.686Z,23.86
2022-08-01T05:16:18.008Z,24.14
2022-08-01T05:18:27.906Z,23.73
2022-08-01T05:20:33.957Z,23.42
2022-08-01T05:22:36.605Z,24.20
2022-08-01T05:24:40.949Z,24.52
2022-08-01T05:26:44.335Z,24.42
2022-08-01T05:28:47.078Z,23.95
2022-08-01T05:30:49.745Z,24.33
2022-08-01T05:32:52.393Z,23.73
2022-08-01T05:34:54.967Z,24.53
2022-08-01T05:36:57.844Z,23.95
2022-08-01T05:39:01.009Z,24.14
2022-08-01T05:41:03.826Z,24.74
2022-08-01T05:43:06.437Z,23.50
2022-08-01T05:45:09.634Z,24.56
2022-08-01T05:47:12.290Z,24.59
2022-08-01T05:49:15.046Z,24.47
2022-08-01T05:51:17.699Z,24.92
2022-08-01T05:53:20.264Z,24.71
2022-08-01T05:55:22.894Z,24.55
2022-08-01T05:57:26.275Z,24.75
2022-08-01T05:59:31.591Z,24.30
2022-08-01T06:01:34.202Z,24.09
2022-08-01T06:03:37.220Z,24.15
2022-08-01T06:05:39.863Z,24.36
2022-08-01T06:07:42.675Z,24.17
2022-08-01T06:09:45.265Z,24.90
2022-08-01T06:11:47.908Z,24.63
2022-08-01T06:13:50.518Z,25.08
2022-08-01T06:15:53.378Z,24.98
2022-08-01T06:17:56.194Z,24.42
2022-08-01T06:19:58.862Z,24.83
2022-08-01T06:22:01.583Z,24.54
2022-08-01T06:24:04.827Z,24.56
2022-08-01T06:26:07.405Z,24.80
2022-08-01T06:28:10.440Z,25.19
2022-08-01T06:30:13.332Z,25.03
2022-08-01T06:32:19.101Z,25.27
2022-08-01T06:34:29.159Z,25.11
2022-08-01T06:36:32.715Z,26.08
2022-08-01T06:38:35.614Z,25.93
2022-08-01T06:40:39.363Z,26.74
2022-08-01T06:42:42.283Z,26.88
2022-08-01T06:44:44.988Z,26.57
2022-08-01T06:46:47.581Z,26.96
2022-08-01T06:48:50.384Z,26.31
2022-08-01T06:51:08.950Z,27.03
2022-08-01T06:53:11.803Z,26.64
2022-08-01T06:55:15.216Z,26.49
2022-08-01T06:57:18.527Z,26.52
2022-08-01T06:59:21.145Z,25.91
2022-08-01T07:01:24.709Z,26.62
2022-08-01T07:03:52.805Z,26.43
2022-08-01T07:05:50.796Z,26.43
2022-08-01T07:07:53.474Z,26.79
2022-08-01T07:09:56.067Z,26.10
2022-08-01T07:11:59.707Z,25.82
2022-08-01T07:14:02.361Z,25.51
2022-08-01T07:16:05.185Z,24.81
2022-08-01T07:18:07.739Z,25.07
2022-08-01T07:20:14.033Z,25.29
2022-08-01T07:22:23.474Z,25.51
2022-08-01T07:24:26.889Z,25.56
2022-08-01T07:26:31.639Z,25.36
2022-08-01T07:28:34.285Z,25.17
2022-08-01T07:30:37.249Z,24.69
2022-08-01T07:32:39.842Z,24.01
2022-08-01T07:34:42.418Z,23.80
2022-08-01T07:36:45.129Z,24.16
2022-08-01T07:38:48.490Z,23.50
2022-08-01T07:40:51.097Z,23.73
2022-08-01T07:42:53.739Z,23.12
2022-08-01T07:44:56.359Z,23.47
2022-08-01T07:46:59.269Z,23.66
2022-08-01T07:49:01.885Z,23.31
2022-08-01T07:51:04.514Z,23.36
2022-08-01T07:53:07.317Z,23.25
2022-08-01T07:55:11.120Z,23.48
2022-08-01T07:57:13.646Z,23.42
2022-08-01T07:59:17.483Z,22.75
2022-08-01T08:01:31.016Z,23.30
2022-08-01T08:03:33.862Z,22.97
2022-08-01T08:05:57.688Z,22.80
2022-08-01T08:07:59.455Z,22.92
2022-08-01T08:10:02.175Z,23.21
2022-08-01T08:12:06.424Z,23.41
2022-08-01T08:14:09.251Z,23.34
2022-08-01T08:16:11.997Z,23.51
2022-08-01T08:18:14.832Z,23.33
2022-08-01T08:20:17.468Z,24.17
2022-08-01T08:22:20.181Z,24.07
2022-08-01T08:24:26.716Z,24.39
2022-08-01T08:26:31.963Z,24.35
2022-08-01T08:28:34.586Z,24.84
2022-08-01T08:30:37.164Z,24.36
2022-08-01T08:32:40.193Z,25.36
2022-08-01T08:34:42.939Z,25.62
2022-08-01T08:36:47.695Z,25.70
2022-08-01T08:38:50.959Z,25.65
2022-08-01T08:40:54.319Z,26.06
2022-08-01T08:42:59.304Z,26.06
2022-08-01T08:45:02.956Z,25.71
2022-08-01T08:47:09.277Z,26.27
2022-08-01T08:49:16.697Z,26.58
2022-08-01T08:51:20.285Z,26.97
2022-08-01T08:53:23.330Z,27.18
2022-08-01T08:55:29.449Z,26.80
2022-08-01T08:57:32.307Z,26.34
2022-08-01T08:59:35.391Z,26.54
2022-08-01T09:01:38.148Z,26.49
2022-08-01T09:03:41.932Z,27.16
2022-08-01T09:05:45.285Z,27.20
2022-08-01T09:07:48.156Z,27.05
2022-08-01T09:09:51.380Z,27.21
2022-08-01T09:11:57.995Z,27.48
2022-08-01T09:14:16.092Z,27.74
2022-08-01T09:16:20.467Z,27.67
2022-08-01T09:18:40.437Z,27.95
2022-08-01T09:20:43.100Z,27.00
2022-08-01T09:22:47.944Z,27.92
2022-08-01T09:25:01.475Z,27.47
2022-08-01T09:27:21.894Z,27.45
2022-08-01T09:29:37.868Z,27.46
2022-08-01T09:31:47.189Z,26.85
2022-08-01T09:34:03.585Z,27.18
2022-08-01T09:36:06.472Z,27.32
2022-08-01T09:38:20.271Z,26.84
2022-08-01T09:40:22.928Z,26.70
2022-08-01T09:42:29.729Z,26.38
2022-08-01T09:44:54.605Z,26.70
2022-08-01T09:46:58.196Z,26.28
2022-08-01T09:49:07.381Z,25.62
2022-08-01T09:51:14.033Z,25.32
2022-08-01T09:53:51.976Z,24.98
2022-08-01T09:55:56.257Z,24.94
2022-08-01T09:58:01.935Z,25.11
2022-08-01T10:00:06.792Z,25.20
2022-08-01T10:02:34.490Z,25.10
2022-08-01T10:04:37.367Z,25.07
2022-08-01T10:06:46.199Z,25.29
2022-08-01T10:08:49.491Z,25.50
2022-08-01T10:11:22.430Z,26.13
2022-08-01T10:13:38.845Z,26.13
2022-08-01T10:15:42.370Z,25.82
2022-08-01T10:17:57.693Z,25.71
2022-08-01T10:20:03.623Z,25.22
2022-08-01T10:22:11.747Z,24.80
2022-08-01T10:24:23.699Z,24.49
2022-08-01T10:26:28.267Z,24.37
2022-08-01T10:28:39.264Z,24.35
2022-08-01T10:30:43.593Z,23.50
2022-08-01T10:32:49.753Z,24.15
2022-08-01T10:34:54.376Z,24.01
2022-08-01T10:36:58.273Z,23.80
2022-08-01T10:39:02.585Z,23.93
2022-08-01T10:41:09.054Z,23.87
2022-08-01T10:43:13.652Z,24.30
2022-08-01T10:45:27.658Z,24.50
2022-08-01T10:48:06.910Z,24.78
2022-08-01T10:50:36.243Z,25.00
2022-08-01T10:52:39.815Z,25.35
2022-08-01T10:54:52.647Z,24.98
2022-08-01T10:57:00.758Z,25.69
2022-08-01T10:59:06.191Z,25.80
2022-08-01T11:01:22.798Z,26.23
2022-08-01T11:03:55.980Z,26.56
2022-08-01T11:05:59.459Z,26.62
2022-08-01T11:08:12.200Z,26.87
2022-08-01T11:10:39.779Z,26.87
2022-08-01T11:12:44.273Z,26.81
2022-08-01T11:15:08.547Z,26.94
2022-08-01T11:17:49.588Z,27.17
2022-08-01T11:20:17.647Z,27.34
2022-08-01T11:22:25.168Z,27.27
2022-08-01T11:24:49.857Z,27.46
2022-08-01T11:27:20.539Z,27.27
2022-08-01T11:29:28.139Z,27.04
2022-08-01T11:31:37.895Z,27.01
2022-08-01T11:33:45.814Z,27.16
2022-08-01T11:36:10.962Z,27.21
2022-08-01T11:38:31.603Z,27.09
2022-08-01T11:40:34.366Z,26.36
2022-08-01T11:42:37.215Z,26.64
2022-08-01T11:44:52.533Z,26.41
2022-08-01T11:47:09.636Z,26.25
2022-08-01T11:49:48.686Z,27.01
2022-08-01T11:52:15.395Z,27.18
2022-08-01T11:54:35.425Z,27.07
2022-08-01T11:56:44.763Z,27.37
2022-08-01T11:58:51.386Z,27.21
2022-08-01T12:00:56.112Z,27.45
2022-08-01T12:03:05.313Z,27.31
2022-08-01T12:05:15.655Z,27.92
2022-08-01T12:07:20.151Z,27.82
2022-08-01T12:09:25.486Z,28.33
2022-08-01T12:11:37.254Z,28.15
2022-08-01T12:13:45.858Z,28.91
2022-08-01T12:15:54.868Z,28.91
2022-08-01T12:18:05.568Z,28.72
2022-08-01T12:20:12.324Z,28.79
2022-08-01T12:22:16.293Z,28.55
2022-08-01T12:24:23.891Z,28.42
2022-08-01T12:26:44.261Z,28.13
2022-08-01T12:28:46.806Z,27.66
2022-08-01T12:30:50.622Z,27.05
2022-08-01T12:32:54.898Z,27.11
2022-08-01T12:35:02.683Z,27.20
2022-08-01T12:37:06.062Z,26.67
2022-08-01T12:39:09.227Z,27.29
2022-08-01T12:41:12.736Z,27.24
2022-08-01T12:43:28.470Z,27.61
2022-08-01T12:45:57.146Z,27.76
2022-08-01T12:48:01.281Z,27.92
2022-08-01T12:50:09.111Z,27.73
2022-08-01T12:52:13.470Z,27.98
2022-08-01T12:54:18.699Z,28.03
2022-08-01T12:56:34.051Z,28.07
2022-08-01T12:58:36.787Z,28.15
2022-08-01T13:00:43.113Z,28.20
2022-08-01T13:02:49.662Z,28.16
2022-08-01T13:04:53.315Z,28.19
2022-08-01T13:06:55.937Z,28.20
2022-08-01T13:09:10.180Z,28.54
2022-08-01T13:11:15.941Z,28.47
2022-08-01T13:13:28.162Z,28.61
2022-08-01T13:15:35.588Z,28.73
2022-08-01T13:17:39.640Z,28.77
2022-08-01T13:19:50.664Z,28.18
2022-08-01T13:21:58.521Z,28.80
2022-08-01T13:24:11.808Z,28.82
2022-08-01T13:26:14.418Z,28.19
2022-08-01T13:28:29.246Z,28.91
2022-08-01T13:30:31.972Z,28.67
2022-08-01T13:32:34.583Z,28.03
2022-08-01T13:34:38.798Z,28.57
2022-08-01T13:36:48.741Z,28.72
2022-08-01T13:39:10.541Z,28.39
2022-08-01T13:41:13.667Z,28.30
2022-08-01T13:43:16.619Z,28.31
2022-08-01T13:45:22.211Z,28.12
2022-08-01T13:47:32.008Z,28.17
2022-08-01T13:49:37.593Z,28.30
2022-08-01T13:51:43.941Z,27.59
2022-08-01T13:53:46.500Z,27.93
2022-08-01T13:55:49.141Z,27.57
2022-08-01T13:57:51.715Z,28.57
2022-08-01T13:59:54.371Z,28.21
2022-08-01T14:01:57.045Z,28.52
2022-08-01T14:04:01.018Z,28.79
2022-08-01T14:06:04.560Z,29.06
2022-08-01T14:08:07.816Z,28.57
2022-08-01T14:10:19.324Z,29.02
2022-08-01T14:12:23.871Z,29.07
2022-08-01T14:14:26.541Z,28.43
2022-08-01T14:16:29.416Z,28.71
2022-08-01T14:18:32.532Z,28.74
2022-08-01T14:20:38.206Z,28.45
2022-08-01T14:22:41.682Z,28.12
2022-08-01T14:24:44.355Z,27.87
2022-08-01T14:26:47.179Z,27.49
2022-08-01T14:28:49.992Z,28.16
2022-08-01T14:30:52.583Z,28.37
2022-08-01T14:32:55.156Z,28.30
2022-08-01T14:34:57.959Z,27.55
2022-08-01T14:37:00.569Z,27.82
2022-08-01T14:39:03.655Z,28.17
2022-08-01T14:41:07.139Z,28.00
2022-08-01T14:43:24.943Z,28.19
2022-08-01T14:45:36.203Z,28.29
2022-08-01T14:47:41.529Z,27.55
2022-08-01T14:49:45.504Z,27.57
2022-08-01T14:51:48.392Z,27.84
2022-08-01T14:53:53.291Z,28.03
2022-08-01T14:55:55.983Z,28.16
2022-08-01T14:57:58.542Z,28.54
2022-08-01T15:00:01.905Z,28.72
2022-08-01T15:02:05.140Z,28.72
2022-08-01T15:04:10.959Z,28.76
2022-08-01T15:06:13.706Z,28.31
2022-08-01T15:08:17.200Z,28.49
2022-08-01T15:10:19.801Z,28.36
2022-08-01T15:12:22.348Z,28.24
2022-08-01T15:14:43.302Z,28.20
2022-08-01T15:16:47.690Z,28.21
2022-08-01T15:18:52.361Z,27.77
2022-08-01T15:20:58.510Z,27.74
2022-08-01T15:23:02.360Z,27.63
2022-08-01T15:25:05.600Z,27.65
2022-08-01T15:27:08.275Z,27.86
2022-08-01T15:29:10.830Z,27.25
2022-08-01T15:31:14.402Z,27.76
2022-08-01T15:33:17.853Z,27.11
2022-08-01T15:35:20.463Z,27.04
2022-08-01T15:37:23.237Z,27.72
2022-08-01T15:39:26.658Z,27.47
2022-08-01T15:41:29.227Z,27.42
2022-08-01T15:43:31.809Z,27.59
2022-08-01T15:45:50.037Z,27.14
2022-08-01T15:47:53.106Z,27.64
2022-08-01T15:50:00.399Z,27.60
2022-08-01T15:52:05.111Z,27.26
2022-08-01T15:54:14.237Z,27.44
2022-08-01T15:56:17.242Z,27.52
2022-08-01T15:58:21.177Z,27.45
2022-08-01T16:00:23.839Z,27.45
2022-08-01T16:02:27.836Z,27.27
2022-08-01T16:04:32.189Z,27.58
2022-08-01T16:06:36.043Z,27.59
2022-08-01T16:08:38.747Z,27.42
2022-08-01T16:10:41.962Z,27.53
2022-08-01T16:12:44.605Z,27.43
2022-08-01T16:14:47.361Z,27.53
2022-08-01T16:16:51.045Z,27.27
2022-08-01T16:18:54.119Z,27.44
2022-08-01T16:20:58.907Z,27.43
2022-08-01T16:23:01.852Z,27.08
2022-08-01T16:25:05.610Z,27.45
2022-08-01T16:27:08.742Z,27.11
2022-08-01T16:29:11.473Z,27.21
2022-08-01T16:31:22.048Z,27.13
2022-08-01T16:33:53.239Z,26.90
2022-08-01T16:35:57.945Z,27.05
2022-08-01T16:38:01.301Z,27.13
2022-08-01T16:40:04.649Z,27.24
2022-08-01T16:42:07.611Z,27.12
2022-08-01T16:44:10.493Z,26.81
2022-08-01T16:46:13.042Z,27.11
2022-08-01T16:48:18.374Z,27.28
2022-08-01T16:50:28.739Z,27.27
2022-08-01T16:52:31.732Z,27.14
2022-08-01T16:54:34.370Z,27.00
2022-08-01T16:56:36.978Z,27.06
2022-08-01T16:58:39.590Z,27.22
2022-08-01T17:00:43.954Z,27.20
2022-08-01T17:02:59.302Z,27.06
2022-08-01T17:05:08.481Z,27.02
2022-08-01T17:07:15.401Z,26.92
2022-08-01T17:09:19.085Z,27.02
2022-08-01T17:11:21.683Z,26.84
2022-08-01T17:13:24.281Z,26.97
2022-08-01T17:15:27.232Z,26.94
2022-08-01T17:17:30.305Z,26.79
2022-08-01T17:19:33.406Z,26.61
2022-08-01T17:21:39.794Z,26.74
2022-08-01T17:23:43.963Z,26.72
2022-08-01T17:25:46.645Z,26.52
2022-08-01T17:27:51.876Z,26.48
2022-08-01T17:29:54.453Z,26.36
2022-08-01T17:31:57.128Z,26.39
2022-08-01T17:33:59.857Z,26.24
2022-08-01T17:36:02.460Z,26.12
2022-08-01T17:38:05.081Z,25.69
2022-08-01T17:40:30.707Z,25.59
2022-08-01T17:42:33.447Z,25.46
2022-08-01T17:44:36.392Z,25.36
2022-08-01T17:46:40.215Z,25.41
2022-08-01T17:48:44.421Z,24.84
2022-08-01T17:50:48.786Z,25.18
2022-08-01T17:52:51.380Z,24.96
2022-08-01T17:54:54.162Z,24.94
2022-08-01T17:56:56.756Z,24.38
2022-08-01T17:58:59.491Z,24.55
2022-08-01T18:01:02.148Z,24.03
2022-08-01T18:03:08.266Z,24.08
2022-08-01T18:05:11.120Z,23.90
2022-08-01T18:07:20.224Z,24.57
2022-08-01T18:09:23.758Z,24.09
2022-08-01T18:11:27.830Z,24.56
2022-08-01T18:13:30.530Z,24.21
2022-08-01T18:15:33.355Z,24.40
2022-08-01T18:17:37.365Z,24.22
2022-08-01T18:19:40.426Z,24.45
2022-08-01T18:21:43.317Z,24.11
2022-08-01T18:23:51.697Z,24.28
2022-08-01T18:26:02.554Z,23.93
2022-08-01T18:28:16.362Z,24.11
2022-08-01T18:30:30.439Z,24.32
2022-08-01T18:32:50.536Z,24.32
2022-08-01T18:34:53.130Z,24.28
2022-08-01T18:36:56.472Z,24.18
2022-08-01T18:39:10.357Z,23.86
2022-08-01T18:41:14.176Z,23.63
2022-08-01T18:43:16.778Z,23.98
2022-08-01T18:45:19.477Z,23.95
2022-08-01T18:47:25.024Z,23.85
2022-08-01T18:49:29.241Z,23.70
2022-08-01T18:51:32.082Z,24.03
2022-08-01T18:53:35.428Z,23.63
2022-08-01T18:55:38.032Z,23.36
2022-08-01T18:57:42.603Z,23.78
2022-08-01T18:59:45.577Z,23.88
2022-08-01T19:01:48.259Z,23.86
2022-08-01T19:03:50.886Z,23.46
2022-08-01T19:05:53.671Z,23.68
2022-08-01T19:08:06.089Z,23.51
2022-08-01T19:10:11.512Z,23.54
2022-08-01T19:12:21.014Z,22.64
2022-08-01T19:14:23.634Z,23.05
2022-08-01T19:16:27.870Z,23.55
2022-08-01T19:18:30.470Z,23.35
2022-08-01T19:20:34.219Z,23.52
2022-08-01T19:22:36.950Z,23.35
2022-08-01T19:24:40.889Z,22.61
2022-08-01T19:26:52.127Z,23.21
2022-08-01T19:29:18.983Z,23.22
2022-08-01T19:31:28.040Z,22.99
2022-08-01T19:33:37.229Z,23.11
2022-08-01T19:35:39.965Z,22.85
2022-08-01T19:37:47.410Z,22.75
2022-08-01T19:39:50.654Z,22.95
2022-08-01T19:41:55.960Z,22.69
2022-08-01T19:44:03.639Z,22.80
2022-08-01T19:46:07.163Z,22.37
2022-08-01T19:48:20.915Z,22.60
2022-08-01T19:50:28.401Z,22.67
2022-08-01T19:52:37.778Z,22.48
2022-08-01T19:54:45.659Z,22.55
2022-08-01T19:56:49.182Z,22.26
2022-08-01T19:58:58.856Z,22.27
2022-08-01T20:01:03.022Z,21.71
2022-08-01T20:03:07.655Z,22.42
2022-08-01T20:05:10.666Z,22.03
2022-08-01T20:07:13.949Z,22.29
2022-08-01T20:09:16.830Z,22.07
2022-08-01T20:11:22.222Z,21.50
2022-08-01T20:13:25.254Z,22.05
2022-08-01T20:15:45.989Z,21.66
2022-08-01T20:17:48.575Z,21.69
2022-08-01T20:19:51.753Z,21.75
2022-08-01T20:22:03.778Z,21.48
2022-08-01T20:24:14.346Z,21.67
2022-08-01T20:26:22.201Z,21.76
2022-08-01T20:28:29.087Z,21.68
2022-08-01T20:30:31.955Z,21.27
2022-08-01T20:32:40.311Z,21.67
2022-08-01T20:34:49.299Z,21.60
2022-08-01T20:36:59.433Z,21.49
2022-08-01T20:39:04.739Z,20.96
2022-08-01T20:41:12.070Z,21.43
2022-08-01T20:43:17.907Z,21.61
2022-08-01T20:45:23.289Z,21.45
2022-08-01T20:47:26.269Z,21.36
2022-08-01T20:49:31.479Z,21.41
2022-08-01T20:51:42.071Z,20.56
2022-08-01T20:53:52.882Z,21.43
2022-08-01T20:56:20.265Z,21.40
2022-08-01T20:58:53.343Z,21.38
2022-08-01T21:01:03.498Z,21.34
2022-08-01T21:03:23.995Z,21.05
2022-08-01T21:05:37.477Z,21.04
2022-08-01T21:08:03.906Z,21.27
2022-08-01T21:10:12.315Z,20.84
2022-08-01T21:12:27.784Z,20.55
2022-08-01T21:14:52.159Z,21.20
2022-08-01T21:17:06.903Z,20.56
2022-08-01T21:19:27.148Z,20.81
2022-08-01T21:21:31.017Z,20.45
2022-08-01T21:24:16.002Z,21.10
2022-08-01T21:26:21.700Z,20.89
2022-08-01T21:28:26.291Z,20.58
2022-08-01T21:30:35.335Z,21.25
2022-08-01T21:32:42.949Z,21.12
2022-08-01T21:34:48.097Z,21.20
2022-08-01T21:37:52.675Z,21.21
2022-08-01T21:39:57.931Z,20.76
2022-08-01T21:42:04.097Z,20.81
2022-08-01T21:44:16.045Z,20.91
2022-08-01T21:46:21.429Z,21.01
2022-08-01T21:48:25.916Z,20.64
2022-08-01T21:50:38.370Z,20.67
2022-08-01T21:53:02.604Z,20.60
2022-08-01T21:55:33.984Z,20.83
2022-08-01T21:58:29.220Z,20.49
2022-08-01T22:00:36.852Z,20.58
2022-08-01T22:02:53.861Z,20.62
2022-08-01T22:05:10.762Z,20.01
2022-08-01T22:07:17.727Z,20.23
2022-08-01T22:09:22.054Z,19.74
2022-08-01T22:11:30.440Z,20.52
2022-08-01T22:13:35.810Z,20.44
2022-08-01T22:15:44.752Z,20.29
2022-08-01T22:17:51.535Z,19.23
2022-08-01T22:19:56.314Z,20.42
2022-08-01T22:21:59.819Z,20.34
2022-08-01T22:24:07.070Z,20.22
2022-08-01T22:26:12.470Z,19.93
2022-08-01T22:28:19.682Z,20.14
2022-08-01T22:30:22.543Z,19.97
2022-08-01T22:32:34.152Z,20.44
2022-08-01T22:34:37.574Z,20.26
2022-08-01T22:36:40.194Z,20.12
2022-08-01T22:38:42.848Z,20.32
2022-08-01T22:40:58.562Z,20.65
2022-08-01T22:43:08.182Z,20.69
2022-08-01T22:45:18.359Z,20.16
2022-08-01T22:48:00.200Z,20.82
2022-08-01T22:50:07.699Z,20.86
2022-08-01T22:53:06.634Z,20.86
2022-08-01T22:55:11.546Z,20.71
2022-08-01T22:57:31.773Z,20.85
2022-08-01T23:00:08.269Z,20.60
2022-08-01T23:02:17.348Z,20.81
2022-08-01T23:04:33.330Z,20.68
2022-08-01T23:06:47.222Z,19.79
2022-08-01T23:08:51.024Z,20.54
2022-08-01T23:11:05.891Z,20.54
2022-08-01T23:13:09.097Z,20.39
2022-08-01T23:15:12.174Z,20.46
2022-08-01T23:17:27.711Z,19.59
2022-08-01T23:19:33.779Z,20.29
2022-08-01T23:21:41.721Z,20.12
2022-08-01T23:23:47.301Z,20.06
2022-08-01T23:25:49.927Z,20.06
2022-08-01T23:28:05.541Z,20.20
2022-08-01T23:30:09.683Z,19.65
2022-08-01T23:32:12.549Z,20.04
2022-08-01T23:34:19.422Z,19.98
2022-08-01T23:36:22.823Z,20.07
2022-08-01T23:38:25.616Z,20.42
2022-08-01T23:40:28.327Z,19.61
2022-08-01T23:42:31.118Z,20.34
2022-08-01T23:44:34.675Z,20.13
2022-08-01T23:46:37.563Z,20.33
2022-08-01T23:48:40.416Z,20.51
2022-08-01T23:50:43.096Z,19.90
2022-08-01T23:52:51.618Z,20.58
2022-08-01T23:54:55.237Z,20.16
2022-08-01T23:57:00.137Z,20.46
2022-08-01T23:59:05.781Z,20.58
